createdAt,value
2018-04-15T00:01:25.377Z,84.50
2018-04-15T00:03:55.305Z,84.40
2018-04-15T00:06:25.464Z,84.50
2018-04-15T00:08:55.671Z,84.60
2018-04-15T00:11:25.895Z,85.00
2018-04-15T00:13:55.769Z,84.60
2018-04-15T00:16:25.757Z,84.60
2018-04-15T00:18:55.597Z,84.50
2018-04-15T00:21:25.884Z,84.40
2018-04-15T00:23:55.837Z,84.60
2018-04-15T00:26:25.548Z,84.50
2018-04-15T00:28:56.520Z,84.60
2018-04-15T00:31:26.400Z,84.60
2018-04-15T00:33:56.109Z,84.60
2018-04-15T00:36:26.852Z,84.60
2018-04-15T00:38:56.552Z,84.60
2018-04-15T00:41:26.467Z,84.60
2018-04-15T00:43:57.696Z,84.60
2018-04-15T00:46:27.523Z,84.60
2018-04-15T00:48:58.052Z,84.50
2018-04-15T00:51:27.973Z,84.50
2018-04-15T00:54:30.853Z,84.50
2018-04-15T00:57:00.971Z,84.50
2018-04-15T00:59:32.392Z,84.60
2018-04-15T01:02:03.017Z,84.60
2018-04-15T01:04:32.970Z,84.70
2018-04-15T01:07:02.882Z,84.60
2018-04-15T01:09:32.565Z,84.60
2018-04-15T01:12:02.307Z,84.60
2018-04-15T01:14:32.831Z,84.60
2018-04-15T01:17:03.565Z,84.60
2018-04-15T01:19:33.648Z,84.60
2018-04-15T01:22:03.392Z,84.70
2018-04-15T01:24:33.512Z,84.70
2018-04-15T01:27:03.427Z,84.60
2018-04-15T01:29:33.340Z,84.50
2018-04-15T01:32:03.264Z,84.60
2018-04-15T01:34:33.170Z,84.60
2018-04-15T01:37:03.044Z,84.60
2018-04-15T01:39:32.998Z,84.50
2018-04-15T01:42:03.120Z,84.50
2018-04-15T01:44:33.032Z,84.60
2018-04-15T01:47:02.945Z,84.50
2018-04-15T01:49:32.656Z,84.70
2018-04-15T01:52:03.338Z,84.60
2018-04-15T01:54:33.105Z,84.60
2018-04-15T01:57:02.809Z,84.60
2018-04-15T01:59:32.721Z,84.60
2018-04-15T02:02:04.598Z,84.50
2018-04-15T02:04:35.167Z,84.70
2018-04-15T02:07:04.925Z,84.60
2018-04-15T02:09:35.083Z,84.60
2018-04-15T02:12:04.998Z,84.70
2018-04-15T02:14:34.870Z,84.50
2018-04-15T02:17:05.198Z,84.60
2018-04-15T02:19:35.110Z,84.60
2018-04-15T02:22:06.766Z,84.70
2018-04-15T02:24:37.231Z,84.70
2018-04-15T02:27:07.105Z,84.70
2018-04-15T02:29:37.362Z,84.60
2018-04-15T02:32:07.343Z,84.60
2018-04-15T02:34:37.219Z,84.70
2018-04-15T02:37:06.973Z,84.70
2018-04-15T02:39:36.679Z,84.50
2018-04-15T02:42:06.591Z,84.60
2018-04-15T02:44:36.710Z,84.60
2018-04-15T02:47:06.623Z,84.70
2018-04-15T02:49:36.543Z,84.70
2018-04-15T02:52:06.252Z,84.70
2018-04-15T02:54:35.956Z,84.50
2018-04-15T02:57:08.125Z,84.60
2018-04-15T02:59:38.038Z,84.60
2018-04-15T03:02:07.747Z,84.60
2018-04-15T03:04:37.662Z,84.70
2018-04-15T03:07:07.475Z,84.70
2018-04-15T03:09:37.970Z,84.70
2018-04-15T03:12:07.715Z,84.60
2018-04-15T03:14:38.037Z,84.70
2018-04-15T03:17:07.910Z,84.70
2018-04-15T03:19:37.660Z,84.70
2018-04-15T03:22:07.781Z,84.60
2018-04-15T03:24:37.653Z,84.70
2018-04-15T03:27:07.410Z,84.50
2018-04-15T03:29:37.316Z,84.60
2018-04-15T03:32:07.025Z,84.70
2018-04-15T03:34:36.735Z,84.60
2018-04-15T03:37:06.444Z,84.60
2018-04-15T03:39:37.178Z,84.70
2018-04-15T03:42:08.529Z,84.60
2018-04-15T03:44:38.451Z,84.60
2018-04-15T03:47:08.150Z,84.60
2018-04-15T03:49:37.859Z,84.70
2018-04-15T03:52:07.907Z,84.70
2018-04-15T03:54:37.895Z,84.70
2018-04-15T03:57:07.603Z,84.60
2018-04-15T03:59:37.517Z,84.60
2018-04-15T04:02:07.227Z,84.60
2018-04-15T04:04:36.938Z,84.60
2018-04-15T04:07:09.309Z,84.60
2018-04-15T04:09:39.224Z,84.60
2018-04-15T04:12:10.570Z,84.70
2018-04-15T04:14:41.507Z,84.70
2018-04-15T04:17:11.218Z,84.70
2018-04-15T04:21:57.324Z,84.70
2018-04-15T04:25:34.858Z,85.40
2018-04-15T04:28:05.560Z,84.70
2018-04-15T04:30:35.267Z,84.60
2018-04-15T04:33:04.976Z,84.60
2018-04-15T04:35:35.670Z,84.70
2018-04-15T04:38:05.419Z,84.60
2018-04-15T04:40:35.128Z,84.60
2018-04-15T04:43:05.657Z,84.60
2018-04-15T04:45:35.366Z,84.60
2018-04-15T04:48:06.099Z,84.70
2018-04-15T04:50:36.013Z,84.70
2018-04-15T04:53:06.923Z,84.80
2018-04-15T04:55:36.867Z,84.80
2018-04-15T04:58:06.576Z,84.60
2018-04-15T05:00:37.310Z,84.80
2018-04-15T05:03:07.431Z,84.70
2018-04-15T05:05:37.313Z,84.70
2018-04-15T05:08:07.258Z,84.70
2018-04-15T05:10:36.973Z,84.70
2018-04-15T05:13:06.883Z,84.70
2018-04-15T05:15:36.801Z,84.70
2018-04-15T05:18:08.113Z,84.80
2018-04-15T05:20:38.046Z,84.80
2018-04-15T05:23:08.589Z,84.80
2018-04-15T05:25:39.913Z,84.90
2018-04-15T05:28:09.849Z,84.90
2018-04-15T05:30:40.175Z,84.90
2018-04-15T05:33:10.041Z,84.90
2018-04-15T05:35:40.005Z,84.80
2018-04-15T05:38:10.945Z,84.90
2018-04-15T05:40:41.061Z,85.00
2018-04-15T05:43:10.769Z,84.90
2018-04-15T05:45:40.682Z,84.90
2018-04-15T05:48:10.802Z,84.90
2018-04-15T05:50:41.497Z,85.00
2018-04-15T05:53:11.452Z,85.00
2018-04-15T05:55:43.409Z,85.00
2018-04-15T05:58:13.940Z,85.00
2018-04-15T06:00:43.855Z,85.00
2018-04-15T06:03:14.796Z,84.90
2018-04-15T06:05:44.668Z,85.10
2018-04-15T06:08:14.422Z,85.20
2018-04-15T06:10:45.532Z,85.10
2018-04-15T06:13:16.253Z,85.20
2018-04-15T06:15:46.086Z,85.10
2018-04-15T06:18:16.736Z,85.20
2018-04-15T06:20:46.859Z,85.30
2018-04-15T06:23:16.950Z,85.30
2018-04-15T06:25:47.503Z,85.40
2018-04-15T06:28:19.730Z,85.30
2018-04-15T06:30:49.793Z,85.30
2018-04-15T06:33:20.134Z,85.40
2018-04-15T06:35:50.027Z,85.50
2018-04-15T06:38:20.350Z,85.70
2018-04-15T06:40:50.880Z,85.40
2018-04-15T06:43:23.463Z,85.60
2018-04-15T06:45:56.852Z,85.80
2018-04-15T06:48:27.387Z,85.50
2018-04-15T06:50:58.658Z,85.70
2018-04-15T06:53:28.812Z,85.70
2018-04-15T06:55:58.763Z,85.80
2018-04-15T06:58:28.676Z,85.80
2018-04-15T07:00:59.331Z,85.80
2018-04-15T07:03:29.944Z,85.80
2018-04-15T07:05:59.648Z,85.90
2018-04-15T07:08:29.567Z,85.80
2018-04-15T07:10:59.547Z,86.00
2018-04-15T07:13:42.517Z,86.00
2018-04-15T07:16:16.511Z,86.10
2018-04-15T07:18:47.636Z,86.00
2018-04-15T07:21:17.772Z,86.00
2018-04-15T07:23:47.689Z,86.10
2018-04-15T07:26:20.378Z,86.10
2018-04-15T07:28:54.272Z,86.10
2018-04-15T07:31:24.189Z,86.00
2018-04-15T07:33:54.921Z,86.10
2018-04-15T07:36:25.218Z,86.20
2018-04-15T07:38:56.293Z,86.30
2018-04-15T07:41:26.451Z,86.20
2018-04-15T07:43:56.325Z,86.60
2018-04-15T07:46:26.636Z,86.40
2018-04-15T07:48:56.515Z,86.40
2018-04-15T07:51:26.470Z,86.40
2018-04-15T07:53:58.639Z,86.30
2018-04-15T07:56:28.524Z,86.10
2018-04-15T07:58:58.681Z,86.10
2018-04-15T08:01:28.994Z,85.90
2018-04-15T08:03:59.729Z,85.90
2018-04-15T08:06:29.812Z,85.90
2018-04-15T08:08:59.558Z,85.50
2018-04-15T08:11:29.352Z,85.50
2018-04-15T08:14:00.001Z,85.50
2018-04-15T08:16:29.822Z,85.70
2018-04-15T08:18:59.841Z,85.70
2018-04-15T08:21:29.751Z,85.60
2018-04-15T08:23:59.861Z,85.50
2018-04-15T08:26:31.210Z,85.40
2018-04-15T08:29:01.330Z,85.50
2018-04-15T08:31:32.181Z,85.40
2018-04-15T08:34:02.911Z,85.50
2018-04-15T08:36:33.734Z,85.50
2018-04-15T08:39:03.649Z,85.50
2018-04-15T08:41:33.705Z,85.40
2018-04-15T08:44:03.480Z,85.50
2018-04-15T08:46:33.767Z,85.20
2018-04-15T08:49:03.715Z,85.30
2018-04-15T08:51:34.648Z,85.20
2018-04-15T08:54:06.003Z,85.20
2018-04-15T08:56:36.737Z,85.20
2018-04-15T08:59:07.396Z,85.10
2018-04-15T09:01:37.345Z,85.10
2018-04-15T09:04:07.342Z,85.10
2018-04-15T09:06:37.372Z,84.90
2018-04-15T09:09:07.590Z,85.00
2018-04-15T09:11:37.619Z,84.70
2018-04-15T09:14:08.113Z,84.80
2018-04-15T09:16:39.326Z,84.70
2018-04-15T09:19:09.324Z,84.80
2018-04-15T09:21:39.563Z,84.90
2018-04-15T09:24:09.478Z,84.90
2018-04-15T09:26:39.399Z,84.80
2018-04-15T09:29:09.235Z,84.80
2018-04-15T09:31:39.544Z,84.60
2018-04-15T09:34:09.444Z,84.80
2018-04-15T09:36:39.732Z,84.80
2018-04-15T09:39:09.885Z,84.80
2018-04-15T09:41:39.804Z,84.80
2018-04-15T09:44:10.096Z,84.80
2018-04-15T09:46:40.039Z,84.80
2018-04-15T09:49:10.157Z,84.70
2018-04-15T09:51:40.872Z,84.90
2018-04-15T09:54:11.179Z,84.90
2018-04-15T09:57:55.468Z,84.80
2018-04-15T10:00:25.351Z,84.70
2018-04-15T10:02:55.299Z,84.80
2018-04-15T10:05:25.216Z,84.90
2018-04-15T10:07:55.125Z,84.70
2018-04-15T10:10:25.245Z,84.60
2018-04-15T10:12:55.161Z,84.50
2018-04-15T10:15:25.109Z,84.60
2018-04-15T10:17:54.987Z,84.50
2018-04-15T10:20:24.902Z,84.60
2018-04-15T10:22:54.978Z,84.40
2018-04-15T10:25:24.731Z,84.40
2018-04-15T10:27:54.641Z,84.30
2018-04-15T10:30:24.978Z,84.50
2018-04-15T10:32:54.885Z,84.40
2018-04-15T10:35:24.804Z,84.30
2018-04-15T10:37:54.919Z,84.50
2018-04-15T10:40:26.379Z,84.40
2018-04-15T10:42:57.008Z,84.00
2018-04-15T10:45:26.913Z,84.50
2018-04-15T10:47:57.042Z,84.50
2018-04-15T10:50:27.120Z,84.50
2018-04-15T10:52:56.862Z,84.40
2018-04-15T10:55:26.821Z,84.50
2018-04-15T10:57:56.700Z,84.50
2018-04-15T11:00:26.605Z,84.40
2018-04-15T11:02:58.159Z,84.40
2018-04-15T11:05:28.071Z,84.40
2018-04-15T11:07:57.987Z,84.30
2018-04-15T11:10:28.065Z,84.30
2018-04-15T11:13:03.345Z,84.40
2018-04-15T11:15:33.258Z,84.50
2018-04-15T11:18:04.948Z,84.70
2018-04-15T11:20:34.871Z,84.70
2018-04-15T11:23:04.796Z,84.50
2018-04-15T11:25:34.768Z,84.60
2018-04-15T11:28:05.699Z,84.70
2018-04-15T11:30:36.022Z,84.70
2018-04-15T11:33:06.755Z,84.70
2018-04-15T11:35:36.669Z,84.70
2018-04-15T11:38:06.696Z,84.70
2018-04-15T11:40:37.711Z,85.40
2018-04-15T11:43:07.820Z,84.70
2018-04-15T11:45:37.761Z,84.90
2018-04-15T11:48:07.830Z,84.90
2018-04-15T11:50:38.055Z,85.00
2018-04-15T11:53:07.915Z,85.10
2018-04-15T11:55:37.827Z,85.60
2018-04-15T11:58:07.881Z,85.30
2018-04-15T12:00:37.849Z,85.50
2018-04-15T12:03:08.144Z,85.20
2018-04-15T12:05:38.071Z,85.50
2018-04-15T12:08:08.629Z,85.60
2018-04-15T12:10:38.542Z,85.60
2018-04-15T12:13:08.657Z,85.70
2018-04-15T12:15:38.959Z,85.60
2018-04-15T12:18:08.907Z,85.50
2018-04-15T12:20:38.811Z,85.40
2018-04-15T12:23:09.418Z,85.50
2018-04-15T12:25:39.475Z,85.30
2018-04-15T12:28:09.697Z,85.50
2018-04-15T12:30:40.525Z,85.90
2018-04-15T12:33:11.254Z,85.90
2018-04-15T12:35:42.858Z,86.20
2018-04-15T12:38:13.948Z,86.10
2018-04-15T12:40:45.014Z,86.00
2018-04-15T12:43:15.196Z,86.30
2018-04-15T12:45:45.761Z,86.20
2018-04-15T12:48:16.068Z,86.40
2018-04-15T12:50:46.181Z,86.40
2018-04-15T12:53:16.308Z,86.40
2018-04-15T12:55:49.876Z,86.20
2018-04-15T12:58:19.818Z,86.70
2018-04-15T13:00:51.304Z,86.40
2018-04-15T13:03:21.487Z,86.40
2018-04-15T13:05:51.404Z,87.00
2018-04-15T13:08:21.359Z,86.20
2018-04-15T13:10:51.467Z,86.20
2018-04-15T13:13:21.420Z,86.00
2018-04-15T13:15:52.084Z,86.00
2018-04-15T13:18:22.107Z,86.10
2018-04-15T13:20:52.307Z,86.10
2018-04-15T13:23:22.238Z,85.90
2018-04-15T13:25:52.402Z,86.10
2018-04-15T13:28:22.517Z,86.30
2018-04-15T13:30:52.574Z,86.20
2018-04-15T13:33:23.330Z,86.00
2018-04-15T13:35:53.429Z,86.00
2018-04-15T13:38:23.363Z,86.00
2018-04-15T13:40:53.485Z,86.20
2018-04-15T13:43:23.588Z,86.30
2018-04-15T13:45:53.926Z,86.00
2018-04-15T13:48:24.248Z,86.10
2018-04-15T13:50:54.663Z,86.30
2018-04-15T13:53:24.691Z,86.00
2018-04-15T13:55:54.716Z,86.50
2018-04-15T13:58:24.729Z,86.40
2018-04-15T14:00:54.634Z,86.60
2018-04-15T14:03:24.759Z,86.80
2018-04-15T14:05:54.879Z,86.60
2018-04-15T14:08:24.998Z,86.60
2018-04-15T14:10:54.921Z,86.40
2018-04-15T14:13:24.877Z,86.50
2018-04-15T14:15:54.779Z,86.70
2018-04-15T14:18:25.322Z,86.50
2018-04-15T14:20:55.610Z,86.80
2018-04-15T14:23:25.883Z,86.60
2018-04-15T14:25:55.846Z,86.60
2018-04-15T14:28:26.016Z,86.90
2018-04-15T14:30:56.360Z,86.70
2018-04-15T14:33:26.193Z,86.80
2018-04-15T14:35:56.103Z,86.80
2018-04-15T14:38:26.034Z,86.60
2018-04-15T14:40:56.093Z,86.60
2018-04-15T14:43:25.845Z,86.80
2018-04-15T14:45:57.385Z,86.70
2018-04-15T14:48:27.313Z,86.70
2018-04-15T14:50:58.191Z,86.80
2018-04-15T14:53:28.383Z,86.70
2018-04-15T14:55:58.285Z,87.00
2018-04-15T14:58:28.201Z,86.70
2018-04-15T15:00:58.355Z,86.90
2018-04-15T15:03:28.237Z,86.60
2018-04-15T15:05:58.352Z,86.90
2018-04-15T15:08:28.480Z,86.60
2018-04-15T15:11:01.868Z,86.70
2018-04-15T15:13:33.884Z,87.00
2018-04-15T15:16:03.876Z,87.00
2018-04-15T15:18:34.845Z,86.80
2018-04-15T15:21:04.750Z,86.80
2018-04-15T15:23:34.654Z,85.80
2018-04-15T15:26:04.786Z,86.90
2018-04-15T15:28:34.952Z,85.70
2018-04-15T15:31:04.866Z,85.60
2018-04-15T15:33:34.787Z,85.70
2018-04-15T15:36:04.706Z,85.70
2018-04-15T15:38:34.818Z,86.60
2018-04-15T15:41:05.706Z,86.70
2018-04-15T15:43:35.683Z,86.80
2018-04-15T15:46:05.992Z,86.90
2018-04-15T15:48:36.018Z,86.60
2018-04-15T15:51:06.911Z,86.60
2018-04-15T15:53:36.927Z,86.60
2018-04-15T15:56:06.998Z,86.70
2018-04-15T15:58:37.988Z,86.60
2018-04-15T16:01:07.814Z,86.60
2018-04-15T16:03:37.641Z,85.70
2018-04-15T16:06:07.873Z,85.50
2018-04-15T16:08:38.701Z,86.40
2018-04-15T16:11:10.049Z,86.50
2018-04-15T16:13:40.129Z,86.50
2018-04-15T16:16:10.240Z,86.50
2018-04-15T16:18:40.285Z,86.50
2018-04-15T16:21:10.214Z,86.70
2018-04-15T16:23:40.237Z,85.50
2018-04-15T16:26:10.355Z,86.70
2018-04-15T16:28:40.625Z,86.60
2018-04-15T16:31:11.631Z,86.70
2018-04-15T16:33:41.927Z,85.60
2018-04-15T16:36:12.271Z,85.50
2018-04-15T16:38:42.571Z,86.50
2018-04-15T16:41:12.729Z,86.60
2018-04-15T16:43:42.801Z,86.60
2018-04-15T16:46:13.764Z,87.30
2018-04-15T16:48:43.863Z,86.60
2018-04-15T16:51:14.188Z,86.70
2018-04-15T16:53:44.337Z,86.60
2018-04-15T16:56:14.679Z,86.60
2018-04-15T16:58:44.764Z,86.40
2018-04-15T17:01:15.265Z,86.40
2018-04-15T17:03:45.640Z,86.40
2018-04-15T17:06:16.151Z,86.40
2018-04-15T17:08:46.147Z,86.40
2018-04-15T17:11:16.265Z,86.40
2018-04-15T17:13:46.104Z,86.40
2018-04-15T17:16:16.013Z,86.40
2018-04-15T17:18:46.282Z,86.30
2018-04-15T17:21:16.298Z,86.30
2018-04-15T17:23:46.576Z,86.30
2018-04-15T17:26:16.705Z,86.30
2018-04-15T17:28:47.237Z,86.20
2018-04-15T17:31:17.437Z,86.20
2018-04-15T17:33:47.291Z,86.30
2018-04-15T17:36:18.196Z,86.40
2018-04-15T17:38:48.517Z,86.30
2018-04-15T17:41:18.841Z,86.20
2018-04-15T17:43:48.821Z,86.30
2018-04-15T17:46:18.879Z,86.70
2018-04-15T17:48:49.028Z,86.70
2018-04-15T17:51:18.908Z,86.60
2018-04-15T17:53:49.028Z,86.70
2018-04-15T17:56:18.946Z,86.70
2018-04-15T17:58:49.269Z,87.00
2018-04-15T18:01:19.498Z,87.30
2018-04-15T18:03:50.329Z,88.60
2018-04-15T18:06:20.433Z,87.70
2018-04-15T18:08:51.167Z,88.00
2018-04-15T18:11:21.091Z,87.90
2018-04-15T18:13:52.892Z,87.50
2018-04-15T18:16:23.795Z,87.40
2018-04-15T18:18:53.931Z,87.30
2018-04-15T18:21:24.155Z,87.50
2018-04-15T18:23:54.969Z,87.50
2018-04-15T18:26:25.206Z,87.50
2018-04-15T18:28:55.697Z,88.10
2018-04-15T18:31:25.949Z,87.60
2018-04-15T18:33:56.100Z,87.70
2018-04-15T18:36:26.174Z,87.70
2018-04-15T18:39:00.134Z,87.70
2018-04-15T18:41:30.309Z,87.50
2018-04-15T18:44:01.102Z,87.60
2018-04-15T18:46:31.156Z,87.60
2018-04-15T18:49:01.244Z,88.10
2018-04-15T18:51:31.148Z,88.00
2018-04-15T18:54:01.309Z,87.90
2018-04-15T18:56:31.632Z,88.10
2018-04-15T18:59:03.025Z,88.20
2018-04-15T19:01:33.199Z,88.20
2018-04-15T19:04:03.218Z,88.30
2018-04-15T19:06:33.344Z,88.40
2018-04-15T19:09:03.395Z,88.50
2018-04-15T19:11:33.374Z,88.00
2018-04-15T19:14:03.489Z,88.60
2018-04-15T19:16:34.409Z,88.20
2018-04-15T19:19:05.381Z,88.30
2018-04-15T19:21:35.695Z,88.20
2018-04-15T19:24:06.218Z,88.20
2018-04-15T19:26:36.456Z,88.40
2018-04-15T19:29:07.076Z,88.00
2018-04-15T19:31:37.592Z,88.00
2018-04-15T19:34:09.338Z,88.20
2018-04-15T19:36:39.611Z,88.20
2018-04-15T19:39:09.637Z,88.10
2018-04-15T19:41:40.280Z,87.90
2018-04-15T19:44:10.249Z,87.90
2018-04-15T19:46:40.365Z,87.90
2018-04-15T19:49:10.319Z,87.90
2018-04-15T19:51:40.397Z,87.60
2018-04-15T19:54:17.211Z,87.50
2018-04-15T19:56:53.322Z,87.50
2018-04-15T19:59:23.888Z,87.50
2018-04-15T20:01:59.108Z,87.50
2018-04-15T20:04:29.423Z,87.40
2018-04-15T20:07:00.324Z,87.50
2018-04-15T20:09:30.491Z,87.50
2018-04-15T20:12:00.989Z,87.40
2018-04-15T20:14:30.854Z,87.40
2018-04-15T20:17:00.860Z,87.40
2018-04-15T20:19:31.092Z,87.40
2018-04-15T20:22:01.283Z,88.00
2018-04-15T20:24:32.019Z,87.40
2018-04-15T20:27:02.371Z,87.90
2018-04-15T20:29:32.217Z,88.30
2018-04-15T20:32:02.137Z,88.30
2018-04-15T20:34:32.746Z,88.20
2018-04-15T20:37:02.816Z,88.10
2018-04-15T20:39:32.695Z,88.30
2018-04-15T20:42:02.848Z,88.40
2018-04-15T20:44:32.967Z,88.10
2018-04-15T20:47:02.686Z,87.90
2018-04-15T20:49:32.803Z,87.80
2018-04-15T20:52:02.907Z,87.90
2018-04-15T20:54:32.668Z,88.00
2018-04-15T20:57:02.743Z,88.70
2018-04-15T20:59:32.767Z,88.50
2018-04-15T21:02:02.745Z,88.70
2018-04-15T21:04:32.494Z,89.00
2018-04-15T21:07:02.369Z,88.90
2018-04-15T21:09:32.314Z,88.70
2018-04-15T21:12:04.564Z,89.70
2018-04-15T21:14:34.853Z,88.70
2018-04-15T21:17:04.925Z,88.60
2018-04-15T21:19:35.354Z,88.90
2018-04-15T21:22:11.622Z,89.00
2018-04-15T21:24:41.722Z,88.90
2018-04-15T21:27:11.653Z,88.80
2018-04-15T21:29:42.385Z,88.60
2018-04-15T21:32:12.301Z,88.60
2018-04-15T21:34:42.102Z,88.80
2018-04-15T21:37:11.919Z,88.40
2018-04-15T21:39:42.038Z,88.40
2018-04-15T21:42:13.591Z,88.30
2018-04-15T21:44:44.169Z,88.10
2018-04-15T21:47:14.238Z,88.10
2018-04-15T21:49:44.158Z,88.20
2018-04-15T21:52:14.287Z,88.30
2018-04-15T21:54:44.356Z,88.00
2018-04-15T21:57:14.307Z,88.20
2018-04-15T21:59:44.834Z,88.30
2018-04-15T22:02:14.748Z,88.00
2018-04-15T22:04:44.662Z,88.20
2018-04-15T22:07:15.805Z,88.00
2018-04-15T22:09:45.925Z,88.10
2018-04-15T22:12:16.834Z,88.30
2018-04-15T22:14:46.952Z,88.20
2018-04-15T22:17:17.102Z,88.30
2018-04-15T22:19:46.817Z,88.90
2018-04-15T22:22:16.933Z,88.70
2018-04-15T22:24:46.843Z,88.30
2018-04-15T22:27:16.963Z,88.40
2018-04-15T22:29:46.878Z,88.90
2018-04-15T22:32:17.619Z,88.60
2018-04-15T22:34:47.647Z,88.60
2018-04-15T22:37:18.468Z,88.70
2018-04-15T22:39:48.381Z,88.70
2018-04-15T22:42:18.497Z,88.80
2018-04-15T22:44:48.412Z,88.40
2018-04-15T22:47:18.393Z,88.70
2018-04-15T22:49:52.543Z,88.40
2018-04-15T22:52:23.070Z,88.30
2018-04-15T22:54:52.984Z,88.30
2018-04-15T22:57:22.865Z,88.30
2018-04-15T22:59:52.813Z,88.70
2018-04-15T23:02:24.365Z,88.30
2018-04-15T23:04:54.083Z,88.30
2018-04-15T23:07:23.997Z,88.80
2018-04-15T23:09:54.116Z,88.80
2018-04-15T23:12:25.663Z,88.80
2018-04-15T23:14:55.372Z,88.80
2018-04-15T23:17:25.288Z,88.70
2018-04-15T23:19:54.996Z,88.60
2018-04-15T23:22:24.910Z,88.60
2018-04-15T23:24:54.618Z,88.80
2018-04-15T23:27:25.969Z,89.20
2018-04-15T23:29:55.835Z,89.20
2018-04-15T23:32:25.614Z,88.90
2018-04-15T23:34:55.504Z,88.70
2018-04-15T23:37:31.243Z,88.50
2018-04-15T23:40:01.068Z,88.50
2018-04-15T23:42:30.785Z,88.40
2018-04-15T23:45:00.993Z,88.30
2018-04-15T23:47:30.811Z,88.50
2018-04-15T23:50:00.728Z,88.40
2018-04-15T23:52:36.564Z,88.40
2018-04-15T23:55:06.288Z,88.30
2018-04-15T23:57:37.636Z,88.10
